createdAt,value
2018-09-13T00:00:02.608Z,18.86
2018-09-13T00:00:06.618Z,18.86
2018-09-13T00:00:10.816Z,18.86
2018-09-13T00:00:15.019Z,18.86
2018-09-13T00:00:19.333Z,18.85
2018-09-13T00:00:23.635Z,18.85
2018-09-13T00:00:27.622Z,18.85
2018-09-13T00:00:31.719Z,18.84
2018-09-13T00:00:35.931Z,18.85
2018-09-13T00:00:40.024Z,18.84
2018-09-13T00:00:44.122Z,18.84
2018-09-13T00:00:48.441Z,18.84
2018-09-13T00:00:52.647Z,18.83
2018-09-13T00:00:56.857Z,18.83
2018-09-13T00:01:01.164Z,18.83
2018-09-13T00:01:05.365Z,18.84
2018-09-13T00:01:09.674Z,18.84
2018-09-13T00:01:13.449Z,18.82
2018-09-13T00:01:17.544Z,18.83
2018-09-13T00:01:21.743Z,18.83
2018-09-13T00:01:26.002Z,18.82
2018-09-13T00:01:29.992Z,18.82
2018-09-13T00:01:33.989Z,18.81
2018-09-13T00:01:37.973Z,18.81
2018-09-13T00:01:42.188Z,18.82
2018-09-13T00:01:46.387Z,18.81
2018-09-13T00:01:50.692Z,18.8
2018-09-13T00:01:54.898Z,18.81
2018-09-13T00:01:59.108Z,18.8
2018-09-13T00:02:03.348Z,18.8
2018-09-13T00:02:07.656Z,18.8
2018-09-13T00:02:11.855Z,18.8
2018-09-13T00:02:16.055Z,18.8
2018-09-13T00:02:20.154Z,18.79
2018-09-13T00:02:24.248Z,18.79
2018-09-13T00:02:28.452Z,18.79
2018-09-13T00:02:32.763Z,18.78
2018-09-13T00:02:36.753Z,18.77
2018-09-13T00:02:40.857Z,18.78
2018-09-13T00:02:45.058Z,18.77
2018-09-13T00:02:49.368Z,18.78
2018-09-13T00:02:53.591Z,18.78
2018-09-13T00:02:57.797Z,18.76
2018-09-13T00:03:02.051Z,18.78
2018-09-13T00:03:06.349Z,18.78
2018-09-13T00:03:10.441Z,18.76
2018-09-13T00:03:14.647Z,18.77
2018-09-13T00:03:18.757Z,18.76
2018-09-13T00:03:22.856Z,18.76
2018-09-13T00:03:27.054Z,18.76
2018-09-13T00:03:31.253Z,18.76
2018-09-13T00:03:35.398Z,18.76
2018-09-13T00:03:39.706Z,18.74
2018-09-13T00:03:43.902Z,18.75
2018-09-13T00:03:48.105Z,18.75
2018-09-13T00:03:52.202Z,18.74
2018-09-13T00:03:56.505Z,18.74
2018-09-13T00:04:00.599Z,18.74
2018-09-13T00:04:04.714Z,18.74
2018-09-13T00:04:09.022Z,18.74
2018-09-13T00:04:13.339Z,18.73
2018-09-13T00:04:17.537Z,18.73
2018-09-13T00:04:21.858Z,18.73
2018-09-13T00:04:26.100Z,18.73
2018-09-13T00:04:30.208Z,18.73
2018-09-13T00:04:34.520Z,18.72
2018-09-13T00:04:38.620Z,18.72
2018-09-13T00:04:42.926Z,18.71
2018-09-13T00:04:47.130Z,18.71
2018-09-13T00:04:51.333Z,18.71
2018-09-13T00:04:55.424Z,18.7
2018-09-13T00:04:59.529Z,18.7
2018-09-13T00:05:03.746Z,18.7
2018-09-13T00:05:07.836Z,18.69
2018-09-13T00:05:11.728Z,18.7
2018-09-13T00:05:16.042Z,18.69
2018-09-13T00:05:20.243Z,18.69
2018-09-13T00:05:24.448Z,18.69
2018-09-13T00:05:28.659Z,18.69
2018-09-13T00:05:32.860Z,18.69
2018-09-13T00:05:36.745Z,18.68
2018-09-13T00:05:40.882Z,18.69
2018-09-13T00:05:45.281Z,18.68
2018-09-13T00:05:49.796Z,18.68
2018-09-13T00:05:54.374Z,18.68
2018-09-13T00:05:59.413Z,18.68
2018-09-13T00:06:03.773Z,18.68
2018-09-13T00:06:07.762Z,18.67
2018-09-13T00:06:12.073Z,18.67
2018-09-13T00:06:16.172Z,18.67
2018-09-13T00:06:20.482Z,18.67
2018-09-13T00:06:24.694Z,18.67
2018-09-13T00:06:28.898Z,18.67
2018-09-13T00:06:33.102Z,18.67
2018-09-13T00:06:37.202Z,18.66
2018-09-13T00:06:41.407Z,18.67
2018-09-13T00:06:45.609Z,18.67
2018-09-13T00:06:49.713Z,18.66
2018-09-13T00:06:53.807Z,18.67
2018-09-13T00:06:58.121Z,18.66
2018-09-13T00:07:02.521Z,18.66
2018-09-13T00:07:06.823Z,18.65
2018-09-13T00:07:11.024Z,18.65
2018-09-13T00:07:15.232Z,18.64
2018-09-13T00:07:19.549Z,18.64
2018-09-13T00:07:23.854Z,18.65
2018-09-13T00:07:28.054Z,18.63
2018-09-13T00:07:32.147Z,18.64
2018-09-13T00:07:36.276Z,18.64
2018-09-13T00:07:40.527Z,18.64
2018-09-13T00:07:44.999Z,18.63
2018-09-13T00:07:49.321Z,18.62
2018-09-13T00:07:53.629Z,18.63
2018-09-13T00:07:57.863Z,18.63
2018-09-13T00:08:02.036Z,18.63
2018-09-13T00:08:06.130Z,18.62
2018-09-13T00:08:10.232Z,18.62
2018-09-13T00:08:14.433Z,18.63
2018-09-13T00:08:18.642Z,18.62
2018-09-13T00:08:22.626Z,18.62
2018-09-13T00:08:26.938Z,18.62
2018-09-13T00:08:31.147Z,18.62
2018-09-13T00:08:35.253Z,18.61
2018-09-13T00:08:39.242Z,18.61
2018-09-13T00:08:43.451Z,18.62
2018-09-13T00:08:47.763Z,18.61
2018-09-13T00:08:51.758Z,18.61
2018-09-13T00:08:56.070Z,18.6
2018-09-13T00:09:00.278Z,18.61
2018-09-13T00:09:04.486Z,18.6
2018-09-13T00:09:08.799Z,18.6
2018-09-13T00:09:13.064Z,18.6
2018-09-13T00:09:17.161Z,18.6
2018-09-13T00:09:21.263Z,18.61
2018-09-13T00:09:25.467Z,18.59
2018-09-13T00:09:29.463Z,18.59
2018-09-13T00:09:33.674Z,18.59
2018-09-13T00:09:37.984Z,18.58
2018-09-13T00:09:42.190Z,18.59
2018-09-13T00:09:46.287Z,18.59
2018-09-13T00:09:50.497Z,18.59
2018-09-13T00:09:54.702Z,18.59
2018-09-13T00:09:58.910Z,18.58
2018-09-13T00:10:02.908Z,18.58
2018-09-13T00:10:07.131Z,18.57
2018-09-13T00:10:11.463Z,18.58
2018-09-13T00:10:15.669Z,18.57
2018-09-13T00:10:19.661Z,18.58
2018-09-13T00:10:23.853Z,18.57
2018-09-13T00:10:28.057Z,18.57
2018-09-13T00:10:32.154Z,18.56
2018-09-13T00:10:36.142Z,18.56
2018-09-13T00:10:40.340Z,18.56
2018-09-13T00:10:44.544Z,18.56
2018-09-13T00:10:48.742Z,18.57
2018-09-13T00:10:53.049Z,18.56
2018-09-13T00:10:57.354Z,18.56
2018-09-13T00:11:01.566Z,18.56
2018-09-13T00:11:05.989Z,18.55
2018-09-13T00:11:10.226Z,18.55
2018-09-13T00:11:14.422Z,18.54
2018-09-13T00:11:18.519Z,18.54
2018-09-13T00:11:22.659Z,18.54
2018-09-13T00:11:26.882Z,18.54
2018-09-13T00:11:30.983Z,18.53
2018-09-13T00:11:35.198Z,18.53
2018-09-13T00:11:39.428Z,18.53
2018-09-13T00:11:43.626Z,18.52
2018-09-13T00:11:47.932Z,18.52
2018-09-13T00:11:52.154Z,18.52
2018-09-13T00:11:56.474Z,18.52
2018-09-13T00:12:00.570Z,18.51
2018-09-13T00:12:04.662Z,18.52
2018-09-13T00:12:08.868Z,18.51
2018-09-13T00:12:12.968Z,18.51
2018-09-13T00:12:17.282Z,18.51
2018-09-13T00:12:21.487Z,18.5
2018-09-13T00:12:25.806Z,18.5
2018-09-13T00:12:30.112Z,18.5
2018-09-13T00:12:34.213Z,18.49
2018-09-13T00:12:38.417Z,18.49
2018-09-13T00:12:42.635Z,18.49
2018-09-13T00:12:46.840Z,18.48
2018-09-13T00:12:51.142Z,18.49
2018-09-13T00:12:55.514Z,18.47
2018-09-13T00:12:59.819Z,18.49
2018-09-13T00:13:03.915Z,18.49
2018-09-13T00:13:08.223Z,18.48
2018-09-13T00:13:12.544Z,18.48
2018-09-13T00:13:16.748Z,18.48
2018-09-13T00:13:20.964Z,18.47
2018-09-13T00:13:25.166Z,18.47
2018-09-13T00:13:29.378Z,18.47
2018-09-13T00:13:33.617Z,18.47
2018-09-13T00:13:37.925Z,18.46
2018-09-13T00:13:41.913Z,18.45
2018-09-13T00:13:46.109Z,18.46
2018-09-13T00:13:50.314Z,18.45
2018-09-13T00:13:54.310Z,18.45
2018-09-13T00:13:58.510Z,18.44
2018-09-13T00:14:03.011Z,18.44
2018-09-13T00:14:07.102Z,18.44
2018-09-13T00:14:11.105Z,18.44
2018-09-13T00:14:15.428Z,18.43
2018-09-13T00:14:19.631Z,18.43
2018-09-13T00:14:23.945Z,18.43
2018-09-13T00:14:28.041Z,18.42
2018-09-13T00:14:32.346Z,18.42
2018-09-13T00:14:36.544Z,18.41
2018-09-13T00:14:40.643Z,18.41
2018-09-13T00:14:44.845Z,18.41
2018-09-13T00:14:49.225Z,18.4
2018-09-13T00:14:53.526Z,18.4
2018-09-13T00:14:57.832Z,18.39
2018-09-13T00:15:01.930Z,18.39
2018-09-13T00:15:05.924Z,18.39
2018-09-13T00:15:10.124Z,18.38
2018-09-13T00:15:14.325Z,18.38
2018-09-13T00:15:18.329Z,18.37
2018-09-13T00:15:22.530Z,18.38
2018-09-13T00:15:26.733Z,18.37
2018-09-13T00:15:31.053Z,18.36
2018-09-13T00:15:35.263Z,18.36
2018-09-13T00:15:39.470Z,18.36
2018-09-13T00:15:43.776Z,18.36
2018-09-13T00:15:47.873Z,18.34
2018-09-13T00:15:51.970Z,18.34
2018-09-13T00:15:56.323Z,18.33
2018-09-13T00:16:00.523Z,18.34
2018-09-13T00:16:04.743Z,18.33
2018-09-13T00:16:08.944Z,18.33
2018-09-13T00:16:13.145Z,18.32
2018-09-13T00:16:17.452Z,18.33
2018-09-13T00:16:21.662Z,18.32
2018-09-13T00:16:25.754Z,18.31
2018-09-13T00:16:29.949Z,18.31
2018-09-13T00:16:34.047Z,18.3
2018-09-13T00:16:38.051Z,18.3
2018-09-13T00:16:42.149Z,18.3
2018-09-13T00:16:46.395Z,18.29
2018-09-13T00:16:50.592Z,18.29
2018-09-13T00:16:54.794Z,18.29
2018-09-13T00:16:58.999Z,18.29
2018-09-13T00:17:03.242Z,18.28
2018-09-13T00:17:07.546Z,18.28
2018-09-13T00:17:11.856Z,18.27
2018-09-13T00:17:16.161Z,18.26
2018-09-13T00:17:20.467Z,18.26
2018-09-13T00:17:24.670Z,18.25
2018-09-13T00:17:28.881Z,18.25
2018-09-13T00:17:33.090Z,18.23
2018-09-13T00:17:37.398Z,18.24
2018-09-13T00:17:41.609Z,18.23
2018-09-13T00:17:45.850Z,18.23
2018-09-13T00:17:49.946Z,18.22
2018-09-13T00:17:54.261Z,18.21
2018-09-13T00:17:58.581Z,18.21
2018-09-13T00:18:02.729Z,18.21
2018-09-13T00:18:07.043Z,18.2
2018-09-13T00:18:11.137Z,18.19
2018-09-13T00:18:15.244Z,18.19
2018-09-13T00:18:19.551Z,18.18
2018-09-13T00:18:23.751Z,18.18
2018-09-13T00:18:27.848Z,18.18
2018-09-13T00:18:32.158Z,18.17
2018-09-13T00:18:36.253Z,18.16
2018-09-13T00:18:40.554Z,18.15
2018-09-13T00:18:44.878Z,18.15
2018-09-13T00:18:49.081Z,18.14
2018-09-13T00:18:53.184Z,18.14
2018-09-13T00:18:57.531Z,18.13
2018-09-13T00:19:01.726Z,18.12
2018-09-13T00:19:05.820Z,18.12
2018-09-13T00:19:10.141Z,18.11
2018-09-13T00:19:14.453Z,18.1
2018-09-13T00:19:18.758Z,18.09
2018-09-13T00:19:23.068Z,18.09
2018-09-13T00:19:27.167Z,18.08
2018-09-13T00:19:31.367Z,18.08
2018-09-13T00:19:35.567Z,18.07
2018-09-13T00:19:39.766Z,18.07
2018-09-13T00:19:43.972Z,18.07
2018-09-13T00:19:48.175Z,18.05
2018-09-13T00:19:52.377Z,18.05
2018-09-13T00:19:56.678Z,18.04
2018-09-13T00:20:00.883Z,18.04
2018-09-13T00:20:05.098Z,18.03
2018-09-13T00:20:09.313Z,18.04
2018-09-13T00:20:13.616Z,18.03
2018-09-13T00:20:17.758Z,18.01
2018-09-13T00:20:22.065Z,18.02
2018-09-13T00:20:26.158Z,18.01
2018-09-13T00:20:30.362Z,18.01
2018-09-13T00:20:34.556Z,17.99
2018-09-13T00:20:38.858Z,17.99
2018-09-13T00:20:43.171Z,17.98
2018-09-13T00:20:47.264Z,17.98
2018-09-13T00:20:51.461Z,17.97
2018-09-13T00:20:55.660Z,17.97
2018-09-13T00:20:59.963Z,17.96
2018-09-13T00:21:03.944Z,17.95
2018-09-13T00:21:08.241Z,17.95
2018-09-13T00:21:12.336Z,17.95
2018-09-13T00:21:16.534Z,17.95
2018-09-13T00:21:20.840Z,17.94
2018-09-13T00:21:25.048Z,17.93
2018-09-13T00:21:29.036Z,17.93
2018-09-13T00:21:33.131Z,17.92
2018-09-13T00:21:37.220Z,17.91
2018-09-13T00:21:41.424Z,17.92
2018-09-13T00:21:45.631Z,17.91
2018-09-13T00:21:49.938Z,17.9
2018-09-13T00:21:54.138Z,17.9
2018-09-13T00:21:58.349Z,17.89
2018-09-13T00:22:02.548Z,17.88
2018-09-13T00:22:06.853Z,17.88
2018-09-13T00:22:11.156Z,17.87
2018-09-13T00:22:15.249Z,17.87
2018-09-13T00:22:19.448Z,17.87
2018-09-13T00:22:23.438Z,17.85
2018-09-13T00:22:27.678Z,17.85
2018-09-13T00:22:31.671Z,17.85
2018-09-13T00:22:35.977Z,17.84
2018-09-13T00:22:40.186Z,17.84
2018-09-13T00:22:44.491Z,17.83
2018-09-13T00:22:48.695Z,17.82
2018-09-13T00:22:53.018Z,17.82
2018-09-13T00:22:57.006Z,17.82
2018-09-13T00:23:01.099Z,17.81
2018-09-13T00:23:05.313Z,17.81
2018-09-13T00:23:09.629Z,17.8
2018-09-13T00:23:13.832Z,17.8
2018-09-13T00:23:17.923Z,17.8
2018-09-13T00:23:22.124Z,17.8
2018-09-13T00:23:26.438Z,17.78
2018-09-13T00:23:30.321Z,17.78
2018-09-13T00:23:34.422Z,17.78
2018-09-13T00:23:38.730Z,17.78
2018-09-13T00:23:42.716Z,17.77
2018-09-13T00:23:47.020Z,17.77
2018-09-13T00:23:51.115Z,17.76
2018-09-13T00:23:55.315Z,17.76
2018-09-13T00:23:59.623Z,17.76
2018-09-13T00:24:03.619Z,17.75
2018-09-13T00:24:07.930Z,17.75
2018-09-13T00:24:12.018Z,17.74
2018-09-13T00:24:16.049Z,17.74
2018-09-13T00:24:20.142Z,17.74
2018-09-13T00:24:24.344Z,17.74
2018-09-13T00:24:28.355Z,17.73
2018-09-13T00:24:32.666Z,17.73
2018-09-13T00:24:36.981Z,17.72
2018-09-13T00:24:41.179Z,17.72
2018-09-13T00:24:45.386Z,17.72
2018-09-13T00:24:49.483Z,17.72
2018-09-13T00:24:53.582Z,17.71
2018-09-13T00:24:57.890Z,17.71
2018-09-13T00:25:01.984Z,17.7
2018-09-13T00:25:06.181Z,17.7
2018-09-13T00:25:10.386Z,17.7
2018-09-13T00:25:14.745Z,17.69
2018-09-13T00:25:19.055Z,17.69
2018-09-13T00:25:23.257Z,17.68
2018-09-13T00:25:27.567Z,17.68
2018-09-13T00:25:31.772Z,17.68
2018-09-13T00:25:35.978Z,17.68
2018-09-13T00:25:40.290Z,17.68
2018-09-13T00:25:44.488Z,17.67
2018-09-13T00:25:48.796Z,17.67
2018-09-13T00:25:53.109Z,17.67
2018-09-13T00:25:57.413Z,17.67
2018-09-13T00:26:01.611Z,17.66
2018-09-13T00:26:05.705Z,17.66
2018-09-13T00:26:09.910Z,17.65
2018-09-13T00:26:14.217Z,17.65
2018-09-13T00:26:18.426Z,17.65
2018-09-13T00:26:22.635Z,17.64
2018-09-13T00:26:26.734Z,17.64
2018-09-13T00:26:30.932Z,17.65
2018-09-13T00:26:35.130Z,17.64
2018-09-13T00:26:39.337Z,17.63
2018-09-13T00:26:43.643Z,17.62
2018-09-13T00:26:47.841Z,17.62
2018-09-13T00:26:52.048Z,17.62
2018-09-13T00:26:56.356Z,17.62
2018-09-13T00:27:00.566Z,17.62
2018-09-13T00:27:04.773Z,17.62
2018-09-13T00:27:08.984Z,17.62
2018-09-13T00:27:13.192Z,17.61
2018-09-13T00:27:17.495Z,17.61
2018-09-13T00:27:21.689Z,17.6
2018-09-13T00:27:25.892Z,17.6
2018-09-13T00:27:30.199Z,17.6
2018-09-13T00:27:34.412Z,17.59
2018-09-13T00:27:38.716Z,17.59
2018-09-13T00:27:42.914Z,17.58
2018-09-13T00:27:47.240Z,17.59
2018-09-13T00:27:51.332Z,17.58
2018-09-13T00:27:55.524Z,17.58
2018-09-13T00:27:59.621Z,17.58
2018-09-13T00:28:03.710Z,17.58
2018-09-13T00:28:08.022Z,17.57
2018-09-13T00:28:12.224Z,17.57
2018-09-13T00:28:16.421Z,17.56
2018-09-13T00:28:20.624Z,17.57
2018-09-13T00:28:24.837Z,17.56
2018-09-13T00:28:29.140Z,17.57
2018-09-13T00:28:33.336Z,17.56
2018-09-13T00:28:37.542Z,17.56
2018-09-13T00:28:41.536Z,17.54
2018-09-13T00:28:45.843Z,17.56
2018-09-13T00:28:50.195Z,17.55
2018-09-13T00:28:54.494Z,17.55
2018-09-13T00:28:58.699Z,17.54
2018-09-13T00:29:03.014Z,17.54
2018-09-13T00:29:07.213Z,17.54
2018-09-13T00:29:11.417Z,17.54
2018-09-13T00:29:15.509Z,17.53
2018-09-13T00:29:19.708Z,17.53
2018-09-13T00:29:24.013Z,17.53
2018-09-13T00:29:28.111Z,17.52
2018-09-13T00:29:32.211Z,17.53
2018-09-13T00:29:36.300Z,17.51
2018-09-13T00:29:40.498Z,17.51
2018-09-13T00:29:44.811Z,17.51
2018-09-13T00:29:49.021Z,17.51
2018-09-13T00:29:53.329Z,17.51
2018-09-13T00:29:57.527Z,17.5
2018-09-13T00:30:01.725Z,17.5
2018-09-13T00:30:06.053Z,17.5
2018-09-13T00:30:10.247Z,17.5
2018-09-13T00:30:14.450Z,17.49
2018-09-13T00:30:18.549Z,17.5
2018-09-13T00:30:22.540Z,17.49
2018-09-13T00:30:26.750Z,17.49
2018-09-13T00:30:31.061Z,17.48
2018-09-13T00:30:35.254Z,17.49
2018-09-13T00:30:39.453Z,17.49
2018-09-13T00:30:43.755Z,17.48
2018-09-13T00:30:47.965Z,17.48
2018-09-13T00:30:52.162Z,17.48
2018-09-13T00:30:56.360Z,17.48
2018-09-13T00:31:00.672Z,17.47
2018-09-13T00:31:04.755Z,17.47
2018-09-13T00:31:09.055Z,17.47
2018-09-13T00:31:12.933Z,17.47
2018-09-13T00:31:17.136Z,17.46
2018-09-13T00:31:21.443Z,17.46
2018-09-13T00:31:25.751Z,17.46
2018-09-13T00:31:29.848Z,17.47
2018-09-13T00:31:34.051Z,17.46
2018-09-13T00:31:38.160Z,17.46
2018-09-13T00:31:42.467Z,17.46
2018-09-13T00:31:46.455Z,17.45
2018-09-13T00:31:50.549Z,17.45
2018-09-13T00:31:54.763Z,17.45
2018-09-13T00:31:58.854Z,17.46
2018-09-13T00:32:02.956Z,17.45
2018-09-13T00:32:07.157Z,17.45
2018-09-13T00:32:11.464Z,17.44
2018-09-13T00:32:15.661Z,17.44
2018-09-13T00:32:19.967Z,17.43
2018-09-13T00:32:24.056Z,17.45
2018-09-13T00:32:28.154Z,17.44
2018-09-13T00:32:32.151Z,17.44
2018-09-13T00:32:36.243Z,17.44
2018-09-13T00:32:40.549Z,17.44
2018-09-13T00:32:44.756Z,17.44
2018-09-13T00:32:49.074Z,17.43
2018-09-13T00:32:53.275Z,17.43
2018-09-13T00:32:57.581Z,17.44
2018-09-13T00:33:01.784Z,17.43
2018-09-13T00:33:06.037Z,17.43
2018-09-13T00:33:10.347Z,17.43
2018-09-13T00:33:14.559Z,17.42
2018-09-13T00:33:18.763Z,17.43
2018-09-13T00:33:23.075Z,17.42
2018-09-13T00:33:27.383Z,17.42
2018-09-13T00:33:31.498Z,17.42
2018-09-13T00:33:35.584Z,17.42
2018-09-13T00:33:39.799Z,17.41
2018-09-13T00:33:44.050Z,17.41
2018-09-13T00:33:48.359Z,17.41
2018-09-13T00:33:52.570Z,17.4
2018-09-13T00:33:56.774Z,17.4
2018-09-13T00:34:00.973Z,17.4
2018-09-13T00:34:05.131Z,17.4
2018-09-13T00:34:09.434Z,17.4
2018-09-13T00:34:13.540Z,17.4
2018-09-13T00:34:17.890Z,17.4
2018-09-13T00:34:22.195Z,17.39
2018-09-13T00:34:26.398Z,17.39
2018-09-13T00:34:30.615Z,17.39
2018-09-13T00:34:34.920Z,17.38
2018-09-13T00:34:39.154Z,17.38
2018-09-13T00:34:43.144Z,17.38
2018-09-13T00:34:47.236Z,17.37
2018-09-13T00:34:51.433Z,17.38
2018-09-13T00:34:55.742Z,17.36
2018-09-13T00:34:59.948Z,17.37
2018-09-13T00:35:04.361Z,17.36
2018-09-13T00:35:08.671Z,17.37
2018-09-13T00:35:12.976Z,17.37
2018-09-13T00:35:17.167Z,17.36
2018-09-13T00:35:21.367Z,17.35
2018-09-13T00:35:25.679Z,17.35
2018-09-13T00:35:29.777Z,17.35
2018-09-13T00:35:34.091Z,17.35
2018-09-13T00:35:38.398Z,17.35
2018-09-13T00:35:42.486Z,17.34
2018-09-13T00:35:46.681Z,17.35
2018-09-13T00:35:50.778Z,17.35
2018-09-13T00:35:54.873Z,17.35
2018-09-13T00:35:59.177Z,17.33
2018-09-13T00:36:03.276Z,17.33
2018-09-13T00:36:07.589Z,17.34
2018-09-13T00:36:11.790Z,17.33
2018-09-13T00:36:16.009Z,17.33
2018-09-13T00:36:20.212Z,17.32
2018-09-13T00:36:24.417Z,17.33
2018-09-13T00:36:28.735Z,17.32
2018-09-13T00:36:33.045Z,17.32
2018-09-13T00:36:37.135Z,17.32
2018-09-13T00:36:41.118Z,17.32
2018-09-13T00:36:45.314Z,17.32
2018-09-13T00:36:49.456Z,17.32
2018-09-13T00:36:53.760Z,17.32
2018-09-13T00:36:58.089Z,17.32
2018-09-13T00:37:02.291Z,17.32
2018-09-13T00:37:06.592Z,17.32
2018-09-13T00:37:10.803Z,17.31
2018-09-13T00:37:15.004Z,17.31
2018-09-13T00:37:19.111Z,17.31
2018-09-13T00:37:23.203Z,17.31
2018-09-13T00:37:27.400Z,17.31
2018-09-13T00:37:31.599Z,17.31
2018-09-13T00:37:35.803Z,17.31
2018-09-13T00:37:40.106Z,17.3
2018-09-13T00:37:44.200Z,17.31
2018-09-13T00:37:48.513Z,17.3
2018-09-13T00:37:52.827Z,17.3
2018-09-13T00:37:56.917Z,17.3
2018-09-13T00:38:01.010Z,17.3
2018-09-13T00:38:05.103Z,17.3
2018-09-13T00:38:09.301Z,17.3
2018-09-13T00:38:13.600Z,17.29
2018-09-13T00:38:17.695Z,17.3
2018-09-13T00:38:21.799Z,17.29
2018-09-13T00:38:26.108Z,17.29
2018-09-13T00:38:30.305Z,17.29
2018-09-13T00:38:34.504Z,17.29
2018-09-13T00:38:38.706Z,17.3
2018-09-13T00:38:42.796Z,17.29
2018-09-13T00:38:46.789Z,17.3
2018-09-13T00:38:51.093Z,17.29
2018-09-13T00:38:55.292Z,17.29
2018-09-13T00:38:59.285Z,17.3
2018-09-13T00:39:03.373Z,17.3
2018-09-13T00:39:07.570Z,17.3
2018-09-13T00:39:11.875Z,17.29
2018-09-13T00:39:16.180Z,17.29
2018-09-13T00:39:20.169Z,17.3
2018-09-13T00:39:24.362Z,17.3
2018-09-13T00:39:28.471Z,17.3
2018-09-13T00:39:32.784Z,17.3
2018-09-13T00:39:36.986Z,17.3
2018-09-13T00:39:41.311Z,17.29
2018-09-13T00:39:45.411Z,17.3
2018-09-13T00:39:49.610Z,17.3
2018-09-13T00:39:53.927Z,17.3
2018-09-13T00:39:58.235Z,17.3
2018-09-13T00:40:02.427Z,17.3
2018-09-13T00:40:06.418Z,17.3
2018-09-13T00:40:10.739Z,17.3
2018-09-13T00:40:14.842Z,17.3
2018-09-13T00:40:19.047Z,17.3
2018-09-13T00:40:23.144Z,17.3
2018-09-13T00:40:27.347Z,17.3
2018-09-13T00:40:31.658Z,17.3
2018-09-13T00:40:35.969Z,17.3
2018-09-13T00:40:40.167Z,17.3
2018-09-13T00:40:44.365Z,17.3
2018-09-13T00:40:48.679Z,17.3
2018-09-13T00:40:52.875Z,17.3
2018-09-13T00:40:57.178Z,17.3
2018-09-13T00:41:01.380Z,17.3
2018-09-13T00:41:05.519Z,17.3
2018-09-13T00:41:09.718Z,17.3
2018-09-13T00:41:14.033Z,17.3
2018-09-13T00:41:18.336Z,17.3
2018-09-13T00:41:22.535Z,17.3
2018-09-13T00:41:26.837Z,17.3
2018-09-13T00:41:30.931Z,17.3
2018-09-13T00:41:35.128Z,17.3
2018-09-13T00:41:39.333Z,17.3
2018-09-13T00:41:43.542Z,17.29
2018-09-13T00:41:47.745Z,17.3
2018-09-13T00:41:52.049Z,17.29
2018-09-13T00:41:56.249Z,17.3
2018-09-13T00:42:00.453Z,17.3
2018-09-13T00:42:04.549Z,17.29
2018-09-13T00:42:08.757Z,17.3
2018-09-13T00:42:13.109Z,17.29
2018-09-13T00:42:17.315Z,17.3
2018-09-13T00:42:21.638Z,17.29
2018-09-13T00:42:25.630Z,17.3
2018-09-13T00:42:29.835Z,17.29
2018-09-13T00:42:34.135Z,17.29
2018-09-13T00:42:38.445Z,17.29
2018-09-13T00:42:42.647Z,17.29
2018-09-13T00:42:46.743Z,17.29
2018-09-13T00:42:51.091Z,17.28
2018-09-13T00:42:55.291Z,17.29
2018-09-13T00:42:59.490Z,17.29
2018-09-13T00:43:03.487Z,17.28
2018-09-13T00:43:07.685Z,17.29
2018-09-13T00:43:11.993Z,17.29
2018-09-13T00:43:16.303Z,17.28
2018-09-13T00:43:20.403Z,17.28
2018-09-13T00:43:24.725Z,17.29
2018-09-13T00:43:29.037Z,17.29
2018-09-13T00:43:33.235Z,17.29
2018-09-13T00:43:37.434Z,17.29
2018-09-13T00:43:41.533Z,17.29
2018-09-13T00:43:45.744Z,17.29
2018-09-13T00:43:49.940Z,17.28
2018-09-13T00:43:54.143Z,17.28
2018-09-13T00:43:58.343Z,17.28
2018-09-13T00:44:02.550Z,17.28
2018-09-13T00:44:06.534Z,17.28
2018-09-13T00:44:10.746Z,17.28
2018-09-13T00:44:14.841Z,17.29
2018-09-13T00:44:19.041Z,17.28
2018-09-13T00:44:23.239Z,17.28
2018-09-13T00:44:27.441Z,17.28
2018-09-13T00:44:31.535Z,17.28
2018-09-13T00:44:35.734Z,17.27
2018-09-13T00:44:39.936Z,17.27
2018-09-13T00:44:44.137Z,17.27
2018-09-13T00:44:48.442Z,17.28
2018-09-13T00:44:52.745Z,17.28
2018-09-13T00:44:56.949Z,17.28
2018-09-13T00:45:01.041Z,17.28
2018-09-13T00:45:05.156Z,17.28
2018-09-13T00:45:09.474Z,17.27
2018-09-13T00:45:13.687Z,17.27
2018-09-13T00:45:17.676Z,17.27
2018-09-13T00:45:21.881Z,17.27
2018-09-13T00:45:26.082Z,17.28
2018-09-13T00:45:30.287Z,17.27
2018-09-13T00:45:34.593Z,17.28
2018-09-13T00:45:38.795Z,17.27
2018-09-13T00:45:42.892Z,17.27
2018-09-13T00:45:46.993Z,17.26
2018-09-13T00:45:51.088Z,17.27
2018-09-13T00:45:55.290Z,17.26
2018-09-13T00:45:59.499Z,17.26
2018-09-13T00:46:03.843Z,17.27
2018-09-13T00:46:08.042Z,17.26
2018-09-13T00:46:12.351Z,17.26
2018-09-13T00:46:16.654Z,17.26
2018-09-13T00:46:20.851Z,17.26
2018-09-13T00:46:25.055Z,17.26
2018-09-13T00:46:29.358Z,17.26
2018-09-13T00:46:33.668Z,17.25
2018-09-13T00:46:37.909Z,17.25
2018-09-13T00:46:42.210Z,17.24
2018-09-13T00:46:46.413Z,17.25
2018-09-13T00:46:50.609Z,17.25
2018-09-13T00:46:54.812Z,17.24
2018-09-13T00:46:59.113Z,17.23
2018-09-13T00:47:03.097Z,17.24
2018-09-13T00:47:07.406Z,17.24
2018-09-13T00:47:11.605Z,17.23
2018-09-13T00:47:15.914Z,17.23
2018-09-13T00:47:20.221Z,17.23
2018-09-13T00:47:24.425Z,17.23
2018-09-13T00:47:28.628Z,17.23
2018-09-13T00:47:32.717Z,17.22
2018-09-13T00:47:36.816Z,17.22
2018-09-13T00:47:40.910Z,17.22
2018-09-13T00:47:45.115Z,17.21
2018-09-13T00:47:49.423Z,17.22
2018-09-13T00:47:53.623Z,17.21
2018-09-13T00:47:57.816Z,17.2
2018-09-13T00:48:02.123Z,17.2
2018-09-13T00:48:06.220Z,17.21
2018-09-13T00:48:10.422Z,17.2
2018-09-13T00:48:14.731Z,17.2
2018-09-13T00:48:18.988Z,17.19
2018-09-13T00:48:23.186Z,17.2
2018-09-13T00:48:27.493Z,17.2
2018-09-13T00:48:31.696Z,17.19
2018-09-13T00:48:35.902Z,17.18
2018-09-13T00:48:40.097Z,17.19
2018-09-13T00:48:44.304Z,17.19
2018-09-13T00:48:48.506Z,17.18
2018-09-13T00:48:52.600Z,17.19
2018-09-13T00:48:56.801Z,17.18
2018-09-13T00:49:01.001Z,17.18
2018-09-13T00:49:05.133Z,17.18
2018-09-13T00:49:09.451Z,17.18
2018-09-13T00:49:13.758Z,17.18
2018-09-13T00:49:18.118Z,17.17
2018-09-13T00:49:22.215Z,17.16
2018-09-13T00:49:26.205Z,17.17
2018-09-13T00:49:30.530Z,17.17
2018-09-13T00:49:34.732Z,17.16
2018-09-13T00:49:38.931Z,17.16
2018-09-13T00:49:43.133Z,17.15
2018-09-13T00:49:47.336Z,17.15
2018-09-13T00:49:51.540Z,17.16
2018-09-13T00:49:55.849Z,17.15
2018-09-13T00:49:59.939Z,17.14
2018-09-13T00:50:03.981Z,17.14
2018-09-13T00:50:07.964Z,17.15
2018-09-13T00:50:12.165Z,17.15
2018-09-13T00:50:16.465Z,17.14
2018-09-13T00:50:20.667Z,17.13
2018-09-13T00:50:24.867Z,17.14
2018-09-13T00:50:29.063Z,17.13
2018-09-13T00:50:33.167Z,17.13
2018-09-13T00:50:37.366Z,17.13
2018-09-13T00:50:41.612Z,17.12
2018-09-13T00:50:45.703Z,17.12
2018-09-13T00:50:49.896Z,17.12
2018-09-13T00:50:54.199Z,17.12
2018-09-13T00:50:58.295Z,17.11
2018-09-13T00:51:02.491Z,17.11
2018-09-13T00:51:06.583Z,17.1
2018-09-13T00:51:10.776Z,17.11
2018-09-13T00:51:14.964Z,17.1
2018-09-13T00:51:19.106Z,17.11
2018-09-13T00:51:23.195Z,17.1
2018-09-13T00:51:27.398Z,17.1
2018-09-13T00:51:31.716Z,17.09
2018-09-13T00:51:35.910Z,17.1
2018-09-13T00:51:40.120Z,17.09
2018-09-13T00:51:44.226Z,17.08
2018-09-13T00:51:48.322Z,17.08
2018-09-13T00:51:52.316Z,17.08
2018-09-13T00:51:56.616Z,17.08
2018-09-13T00:52:00.922Z,17.07
2018-09-13T00:52:04.911Z,17.07
2018-09-13T00:52:09.210Z,17.07
2018-09-13T00:52:13.406Z,17.07
2018-09-13T00:52:17.604Z,17.07
2018-09-13T00:52:21.902Z,17.07
2018-09-13T00:52:25.995Z,17.07
2018-09-13T00:52:30.193Z,17.07
2018-09-13T00:52:34.419Z,17.07
2018-09-13T00:52:38.614Z,17.06
2018-09-13T00:52:42.925Z,17.06
2018-09-13T00:52:47.226Z,17.06
2018-09-13T00:52:51.319Z,17.06
2018-09-13T00:52:55.422Z,17.05
2018-09-13T00:52:59.742Z,17.05
2018-09-13T00:53:03.886Z,17.04
2018-09-13T00:53:08.077Z,17.06
2018-09-13T00:53:12.273Z,17.04
2018-09-13T00:53:16.588Z,17.04
2018-09-13T00:53:20.900Z,17.03
2018-09-13T00:53:24.990Z,17.03
2018-09-13T00:53:29.293Z,17.05
2018-09-13T00:53:33.502Z,17.04
2018-09-13T00:53:37.810Z,17.03
2018-09-13T00:53:41.898Z,17.04
2018-09-13T00:53:45.989Z,17.04
2018-09-13T00:53:50.187Z,17.04
2018-09-13T00:53:54.498Z,17.03
2018-09-13T00:53:58.799Z,17.03
2018-09-13T00:54:03.109Z,17.02
2018-09-13T00:54:07.421Z,17.03
2018-09-13T00:54:11.618Z,17.03
2018-09-13T00:54:15.599Z,17.03
2018-09-13T00:54:19.926Z,17.03
2018-09-13T00:54:24.233Z,17.03